Time;durP1;ratioP1;P1;durP2;ratioP2;P2;SDS_P1;SDS_P2;PMS_P1;PMS_P2;Temp;Humidity;BMP_temperature;BMP_pressure;BME280_temperature;BME280_humidity;BME280_pressure;Samples;Min_cycle;Max_cycle;Signal;HPM_P1;HPM_P2
2023/05/22 00:00:23;;;;;;;1.58;1.17;;;;;;;;;;5077025;28;20116;-76
2023/05/22 00:02:49;;;;;;;0.10;0.10;;;;;;;;;;5077593;28;20027;-77
2023/05/22 00:05:17;;;;;;;0.13;0.13;;;;;;;;;;5078164;28;20532;-77
2023/05/22 00:07:42;;;;;;;0.20;0.20;;;;;;;;;;5060272;28;20036;-76
2023/05/22 00:10:08;;;;;;;0.20;0.20;;;;;;;;;;5078354;28;20040;-79
2023/05/22 00:12:33;;;;;;;0.10;0.10;;;;;;;;;;5077401;28;20041;-78
2023/05/22 00:14:59;;;;;;;0.10;0.10;;;;;;;;;;5078213;28;20032;-77
2023/05/22 00:17:25;;;;;;;0.20;0.20;;;;;;;;;;5060461;28;20081;-76
2023/05/22 00:19:52;;;;;;;0.20;0.20;;;;;;;;;;5079955;28;20020;-76
2023/05/22 00:22:18;;;;;;;0.10;0.10;;;;;;;;;;5066954;28;20028;-78
2023/05/22 00:24:43;;;;;;;0.10;0.10;;;;;;;;;;5078385;28;20047;-77
2023/05/22 00:27:08;;;;;;;0.20;0.20;;;;;;;;;;5074912;28;20039;-76
2023/05/22 00:29:34;;;;;;;0.20;0.20;;;;;;;;;;5074570;28;20040;-76
2023/05/22 00:32:00;;;;;;;0.30;0.30;;;;;;;;;;5057080;28;20373;-76
2023/05/22 00:34:25;;;;;;;0.10;0.10;;;;;;;;;;5073928;28;20528;-76
2023/05/22 00:36:51;;;;;;;0.55;0.40;;;;;;;;;;5073460;28;20043;-75
2023/05/22 00:39:16;;;;;;;0.10;0.10;;;;;;;;;;5055136;28;20411;-76
2023/05/22 00:41:41;;;;;;;0.20;0.20;;;;;;;;;;5055287;28;20071;-77
2023/05/22 00:44:07;;;;;;;0.20;0.20;;;;;;;;;;5073063;28;20679;-77
2023/05/22 00:46:32;;;;;;;0.20;0.20;;;;;;;;;;5054975;28;20037;-77
2023/05/22 00:49:01;;;;;;;0.10;0.10;;;;;;;;;;5073425;28;20032;-77
2023/05/22 00:51:26;;;;;;;0.20;0.20;;;;;;;;;;5074536;28;20375;-76
2023/05/22 00:53:53;;;;;;;0.40;0.40;;;;;;;;;;5074319;28;20029;-76
2023/05/22 00:56:20;;;;;;;0.20;0.20;;;;;;;;;;5074343;28;20060;-77
2023/05/22 00:58:45;;;;;;;0.10;0.10;;;;;;;;;;5074132;28;20461;-77
2023/05/22 01:01:11;;;;;;;0.20;0.20;;;;;;;;;;5074434;28;20116;-77
2023/05/22 01:03:43;;;;;;;0.20;0.20;;;;;;;;;;5071708;28;20467;-77
2023/05/22 01:06:09;;;;;;;0.20;0.20;;;;;;;;;;5074271;28;20044;-76
2023/05/22 01:08:35;;;;;;;0.10;0.10;;;;;;;;;;5074561;28;20024;-75
2023/05/22 01:11:03;;;;;;;0.10;0.10;;;;;;;;;;5074233;28;20032;-76
2023/05/22 01:13:31;;;;;;;0.10;0.10;;;;;;;;;;5055933;28;20044;-76
2023/05/22 01:16:00;;;;;;;0.20;0.20;;;;;;;;;;5073936;28;20570;-76
2023/05/22 01:18:28;;;;;;;0.20;0.20;;;;;;;;;;5072855;28;20029;-76
2023/05/22 01:21:03;;;;;;;0.10;0.10;;;;;;;;;;5072733;28;20185;-76
2023/05/22 01:24:07;;;;;;;0.17;0.17;;;;;;;;;;5039231;28;20040;-75
2023/05/22 01:26:36;;;;;;;0.20;0.20;;;;;;;;;;4992681;28;20038;-76
2023/05/22 01:29:01;;;;;;;0.10;0.10;;;;;;;;;;4992546;28;20042;-76
2023/05/22 01:31:28;;;;;;;0.20;0.20;;;;;;;;;;5014712;28;20467;-76
2023/05/22 01:33:55;;;;;;;0.20;0.20;;;;;;;;;;5073759;28;20044;-76
2023/05/22 01:36:23;;;;;;;0.20;0.20;;;;;;;;;;5055667;28;20036;-76
2023/05/22 01:38:50;;;;;;;0.10;0.10;;;;;;;;;;5054365;28;20024;-76
2023/05/22 01:41:16;;;;;;;0.15;0.15;;;;;;;;;;5072471;28;20042;-76
2023/05/22 01:43:41;;;;;;;0.20;0.20;;;;;;;;;;5070998;28;20040;-75
2023/05/22 01:46:07;;;;;;;0.20;0.20;;;;;;;;;;5037974;28;20028;-74
2023/05/22 01:48:32;;;;;;;0.20;0.20;;;;;;;;;;5071986;28;20028;-74
2023/05/22 01:51:21;;;;;;;0.10;0.10;;;;;;;;;;5071092;28;20100;-74
2023/05/22 01:53:51;;;;;;;2.93;2.70;;;;;;;;;;5060387;28;20101;-76
2023/05/22 01:56:29;;;;;;;0.25;0.25;;;;;;;;;;5053328;28;20082;-76
2023/05/22 01:58:54;;;;;;;0.10;0.10;;;;;;;;;;5071425;28;20119;-76
2023/05/22 02:01:21;;;;;;;0.10;0.10;;;;;;;;;;5069752;28;20115;-77
2023/05/22 02:03:50;;;;;;;0.10;0.10;;;;;;;;;;5071055;28;20040;-77
2023/05/22 02:06:18;;;;;;;0.20;0.20;;;;;;;;;;5071820;28;20074;-75
2023/05/22 02:08:43;;;;;;;0.20;0.20;;;;;;;;;;5071893;28;20040;-75
2023/05/22 02:11:11;;;;;;;0.30;0.30;;;;;;;;;;5071995;28;20024;-75
2023/05/22 02:13:36;;;;;;;0.20;0.20;;;;;;;;;;5072102;28;20044;-75
2023/05/22 02:16:02;;;;;;;0.20;0.20;;;;;;;;;;5073017;28;20020;-75
2023/05/22 02:18:29;;;;;;;0.17;0.17;;;;;;;;;;5054950;28;20036;-76
2023/05/22 02:20:56;;;;;;;0.17;0.17;;;;;;;;;;5071822;28;20024;-76
2023/05/22 02:23:23;;;;;;;0.10;0.10;;;;;;;;;;5071857;28;20853;-76
2023/05/22 02:25:48;;;;;;;0.10;0.10;;;;;;;;;;5072934;28;20028;-76
2023/05/22 02:28:13;;;;;;;0.10;0.10;;;;;;;;;;5071540;28;20447;-76
2023/05/22 02:30:39;;;;;;;0.13;0.13;;;;;;;;;;5071478;28;20032;-76
2023/05/22 02:33:04;;;;;;;0.20;0.20;;;;;;;;;;5071450;28;20040;-76
2023/05/22 02:35:30;;;;;;;0.30;0.30;;;;;;;;;;5070112;28;20036;-75
2023/05/22 02:37:56;;;;;;;0.20;0.20;;;;;;;;;;5071574;28;20060;-75
2023/05/22 02:40:22;;;;;;;0.20;0.20;;;;;;;;;;5071539;28;20041;-76
2023/05/22 02:42:48;;;;;;;0.20;0.20;;;;;;;;;;5071445;28;20115;-76
2023/05/22 02:45:15;;;;;;;0.30;0.30;;;;;;;;;;5071230;28;20043;-76
2023/05/22 02:47:40;;;;;;;0.10;0.10;;;;;;;;;;5054558;28;20028;-76
2023/05/22 02:50:06;;;;;;;0.10;0.10;;;;;;;;;;5070795;28;20029;-76
2023/05/22 02:52:33;;;;;;;0.20;0.20;;;;;;;;;;5054429;28;20029;-73
2023/05/22 02:54:59;;;;;;;0.15;0.15;;;;;;;;;;5054626;28;20037;-74
2023/05/22 02:57:25;;;;;;;0.20;0.20;;;;;;;;;;5054568;28;20510;-75
2023/05/22 02:59:51;;;;;;;0.10;0.10;;;;;;;;;;5072416;28;20029;-76
2023/05/22 03:02:17;;;;;;;0.10;0.10;;;;;;;;;;5051446;28;20035;-76
2023/05/22 03:04:42;;;;;;;0.20;0.20;;;;;;;;;;5068561;28;20150;-76
2023/05/22 03:07:08;;;;;;;0.20;0.20;;;;;;;;;;5068128;28;20020;-76
2023/05/22 03:09:33;;;;;;;0.20;0.20;;;;;;;;;;5068722;28;20471;-76
2023/05/22 03:11:59;;;;;;;0.17;0.17;;;;;;;;;;5068622;28;20032;-76
2023/05/22 03:14:26;;;;;;;0.17;0.17;;;;;;;;;;5067169;28;20039;-76
2023/05/22 03:16:53;;;;;;;0.20;0.20;;;;;;;;;;5067085;28;20043;-80
2023/05/22 03:19:19;;;;;;;0.20;0.20;;;;;;;;;;5050405;28;20052;-80
2023/05/22 03:21:45;;;;;;;0.15;0.15;;;;;;;;;;5068397;28;20505;-76
2023/05/22 03:24:11;;;;;;;0.10;0.10;;;;;;;;;;5050309;28;20094;-74
2023/05/22 03:26:37;;;;;;;0.10;0.10;;;;;;;;;;5068514;28;20068;-74
2023/05/22 03:29:06;;;;;;;0.20;0.20;;;;;;;;;;5049902;28;20036;-74
2023/05/22 03:31:32;;;;;;;0.10;0.10;;;;;;;;;;5049890;28;20078;-74
2023/05/22 03:34:04;;;;;;;0.13;0.13;;;;;;;;;;5049333;28;20049;-74
2023/05/22 03:36:34;;;;;;;0.20;0.20;;;;;;;;;;5050110;28;20036;-76
2023/05/22 03:39:00;;;;;;;0.20;0.20;;;;;;;;;;5066555;28;20029;-76
2023/05/22 03:41:26;;;;;;;0.10;0.10;;;;;;;;;;5065580;28;20028;-76
2023/05/22 03:43:52;;;;;;;0.10;0.10;;;;;;;;;;5049457;28;20457;-76
2023/05/22 03:46:18;;;;;;;0.20;0.20;;;;;;;;;;5049546;28;20033;-74
2023/05/22 03:48:43;;;;;;;0.40;0.40;;;;;;;;;;5049714;28;20044;-73
2023/05/22 03:51:11;;;;;;;0.17;0.17;;;;;;;;;;5049539;28;20043;-74
2023/05/22 03:53:36;;;;;;;0.17;0.17;;;;;;;;;;5067818;28;20040;-74
2023/05/22 03:56:02;;;;;;;0.20;0.20;;;;;;;;;;5049325;28;20054;-73
2023/05/22 03:58:27;;;;;;;0.10;0.10;;;;;;;;;;5067573;28;20392;-76
2023/05/22 04:00:57;;;;;;;0.40;0.40;;;;;;;;;;5049274;28;20028;-76
2023/05/22 04:03:24;;;;;;;0.20;0.20;;;;;;;;;;5069979;28;20131;-75
2023/05/22 04:05:50;;;;;;;0.20;0.20;;;;;;;;;;5053373;28;20128;-75
2023/05/22 04:08:15;;;;;;;0.20;0.20;;;;;;;;;;5052799;28;20036;-75
2023/05/22 04:10:45;;;;;;;0.20;0.20;;;;;;;;;;5071094;28;20032;-75
2023/05/22 04:13:11;;;;;;;0.20;0.20;;;;;;;;;;5070766;28;20079;-74
2023/05/22 04:15:40;;;;;;;0.20;0.20;;;;;;;;;;5036464;28;20039;-74
2023/05/22 04:18:06;;;;;;;0.13;0.13;;;;;;;;;;5052423;28;20043;-74
2023/05/22 04:20:32;;;;;;;0.20;0.20;;;;;;;;;;5052047;28;20040;-75
2023/05/22 04:22:57;;;;;;;0.10;0.10;;;;;;;;;;5052396;28;20040;-74
2023/05/22 04:25:22;;;;;;;0.65;0.65;;;;;;;;;;5052688;28;20166;-75
2023/05/22 04:27:49;;;;;;;0.20;0.20;;;;;;;;;;5069768;28;20479;-74
2023/05/22 04:30:15;;;;;;;0.10;0.10;;;;;;;;;;5070539;28;20032;-76
2023/05/22 04:32:42;;;;;;;0.20;0.20;;;;;;;;;;5052813;28;20109;-76
2023/05/22 04:35:08;;;;;;;0.20;0.20;;;;;;;;;;5070512;28;20029;-76
2023/05/22 04:37:34;;;;;;;0.20;0.20;;;;;;;;;;5069536;28;20369;-77
2023/05/22 04:40:06;;;;;;;0.22;0.22;;;;;;;;;;5070292;28;20090;-77
2023/05/22 04:42:33;;;;;;;0.20;0.20;;;;;;;;;;5071064;28;20043;-77
2023/05/22 04:44:59;;;;;;;0.20;0.20;;;;;;;;;;5053102;28;20111;-76
2023/05/22 04:47:27;;;;;;;0.28;0.28;;;;;;;;;;5070380;28;20031;-78
2023/05/22 04:49:53;;;;;;;0.20;0.20;;;;;;;;;;5047673;28;20040;-76
2023/05/22 04:52:20;;;;;;;0.10;0.10;;;;;;;;;;5051624;28;20277;-75
2023/05/22 04:54:46;;;;;;;0.20;0.20;;;;;;;;;;5071655;28;20523;-77
2023/05/22 04:57:12;;;;;;;0.20;0.20;;;;;;;;;;5069771;28;20028;-75
2023/05/22 04:59:37;;;;;;;0.17;0.17;;;;;;;;;;5044127;28;20029;-76
2023/05/22 05:02:06;;;;;;;0.20;0.20;;;;;;;;;;5049208;28;20487;-75
2023/05/22 05:04:32;;;;;;;0.10;0.10;;;;;;;;;;5072248;28;20075;-77
2023/05/22 05:06:57;;;;;;;0.10;0.10;;;;;;;;;;5049289;28;20029;-79
2023/05/22 05:09:23;;;;;;;0.30;0.30;;;;;;;;;;5025061;28;20051;-79
2023/05/22 05:11:49;;;;;;;0.20;0.20;;;;;;;;;;5046937;28;20028;-78
2023/05/22 05:14:15;;;;;;;0.50;0.50;;;;;;;;;;5059052;28;20491;-76
2023/05/22 05:16:43;;;;;;;0.10;0.10;;;;;;;;;;5043321;28;20035;-77
2023/05/22 05:19:08;;;;;;;0.20;0.20;;;;;;;;;;5048366;28;20108;-79
2023/05/22 05:21:33;;;;;;;0.30;0.30;;;;;;;;;;5052634;28;20040;-78
2023/05/22 05:24:00;;;;;;;0.20;0.20;;;;;;;;;;5036537;28;20060;-79
2023/05/22 05:26:26;;;;;;;0.13;0.13;;;;;;;;;;5065037;28;20036;-80
2023/05/22 05:28:52;;;;;;;0.20;0.20;;;;;;;;;;5043797;28;20067;-77
2023/05/22 05:31:19;;;;;;;0.10;0.10;;;;;;;;;;5042690;28;20028;-78
2023/05/22 05:34:04;;;;;;;0.20;0.20;;;;;;;;;;5054041;28;20036;-83
2023/05/22 05:36:47;;;;;;;0.40;0.40;;;;;;;;;;5040267;28;20028;-76
2023/05/22 05:39:13;;;;;;;0.10;0.10;;;;;;;;;;5044282;28;20032;-76
2023/05/22 05:41:38;;;;;;;0.20;0.20;;;;;;;;;;5047972;28;20028;-76
2023/05/22 05:44:07;;;;;;;0.17;0.17;;;;;;;;;;5048005;28;20029;-75
2023/05/22 05:46:33;;;;;;;0.13;0.13;;;;;;;;;;5058116;28;20037;-84
2023/05/22 05:48:58;;;;;;;0.20;0.20;;;;;;;;;;5044607;28;20920;-79
2023/05/22 05:51:24;;;;;;;0.20;0.20;;;;;;;;;;5023871;28;20032;-76
2023/05/22 05:53:49;;;;;;;0.20;0.20;;;;;;;;;;5040127;28;20037;-81
2023/05/22 05:56:16;;;;;;;1.95;1.85;;;;;;;;;;5048163;28;20119;-76
2023/05/22 05:58:41;;;;;;;0.20;0.20;;;;;;;;;;5042663;28;20115;-76
2023/05/22 06:01:37;;;;;;;0.50;0.50;;;;;;;;;;5044172;28;20388;-77
2023/05/22 06:04:04;;;;;;;0.30;0.30;;;;;;;;;;5040992;28;20531;-78
2023/05/22 06:06:34;;;;;;;0.20;0.20;;;;;;;;;;5041508;28;20111;-79
2023/05/22 06:09:09;;;;;;;0.73;0.73;;;;;;;;;;5059405;28;20472;-82
2023/05/22 06:11:49;;;;;;;0.20;0.20;;;;;;;;;;5042193;28;20067;-77
2023/05/22 06:14:15;;;;;;;0.10;0.10;;;;;;;;;;5047234;28;20497;-75
2023/05/22 06:16:41;;;;;;;0.20;0.20;;;;;;;;;;5051095;28;20535;-77
2023/05/22 06:19:06;;;;;;;0.20;0.20;;;;;;;;;;5058460;28;20028;-78
2023/05/22 06:21:32;;;;;;;0.20;0.20;;;;;;;;;;5066377;28;20127;-76
2023/05/22 06:23:58;;;;;;;0.60;0.60;;;;;;;;;;5046989;28;20025;-81
2023/05/22 06:26:24;;;;;;;0.20;0.20;;;;;;;;;;5052505;28;20400;-75
2023/05/22 06:28:50;;;;;;;3.50;2.58;;;;;;;;;;5040753;28;20135;-77
2023/05/22 06:31:17;;;;;;;0.43;0.43;;;;;;;;;;5058373;28;20020;-75
2023/05/22 06:33:46;;;;;;;0.35;0.35;;;;;;;;;;5041274;28;20040;-76
2023/05/22 06:36:12;;;;;;;0.15;0.15;;;;;;;;;;5040065;28;20456;-87
2023/05/22 06:38:38;;;;;;;1.40;0.82;;;;;;;;;;5057882;28;20032;-77
2023/05/22 06:41:05;;;;;;;0.20;0.20;;;;;;;;;;5059332;28;20037;-75
2023/05/22 06:43:31;;;;;;;0.10;0.10;;;;;;;;;;5057971;28;20100;-83
2023/05/22 06:46:06;;;;;;;0.20;0.20;;;;;;;;;;5046350;28;20021;-77
2023/05/22 06:48:51;;;;;;;0.10;0.10;;;;;;;;;;5059935;28;20036;-80
2023/05/22 06:51:25;;;;;;;0.20;0.20;;;;;;;;;;5053078;28;20071;-75
2023/05/22 06:53:56;;;;;;;36.92;3.67;;;;;;;;;;5048262;28;20504;-76
2023/05/22 06:56:26;;;;;;;0.20;0.20;;;;;;;;;;5040736;28;20376;-76
2023/05/22 06:58:55;;;;;;;0.40;0.40;;;;;;;;;;5040978;28;20028;-75
2023/05/22 07:01:28;;;;;;;0.20;0.20;;;;;;;;;;5038745;28;20045;-75
2023/05/22 07:04:07;;;;;;;0.25;0.25;;;;;;;;;;5046709;28;20040;-76
2023/05/22 07:06:47;;;;;;;0.73;0.73;;;;;;;;;;5069374;28;20124;-76
2023/05/22 07:09:14;;;;;;;0.40;0.40;;;;;;;;;;5042186;28;20563;-72
2023/05/22 07:11:41;;;;;;;0.20;0.20;;;;;;;;;;5066295;28;20480;-72
2023/05/22 07:14:07;;;;;;;1.00;0.90;;;;;;;;;;5049911;28;20029;-72
2023/05/22 07:16:32;;;;;;;0.20;0.20;;;;;;;;;;5050816;28;20491;-73
2023/05/22 07:19:00;;;;;;;0.20;0.20;;;;;;;;;;5064943;28;20028;-72
2023/05/22 07:21:25;;;;;;;1.80;0.73;;;;;;;;;;5049734;28;20033;-73
2023/05/22 07:23:52;;;;;;;0.30;0.30;;;;;;;;;;5019097;28;20033;-73
2023/05/22 07:26:17;;;;;;;0.20;0.20;;;;;;;;;;5032937;28;20036;-72
2023/05/22 07:28:49;;;;;;;0.20;0.20;;;;;;;;;;5030594;28;20036;-73
2023/05/22 07:31:15;;;;;;;0.20;0.20;;;;;;;;;;5035032;28;20463;-73
2023/05/22 07:33:40;;;;;;;0.20;0.20;;;;;;;;;;5059838;28;20032;-73
2023/05/22 07:36:06;;;;;;;0.20;0.20;;;;;;;;;;5069902;28;20094;-73
2023/05/22 07:38:31;;;;;;;0.68;0.68;;;;;;;;;;5053413;28;20028;-73
2023/05/22 07:41:03;;;;;;;1.25;0.77;;;;;;;;;;5053958;28;20071;-73
2023/05/22 07:43:29;;;;;;;0.30;0.30;;;;;;;;;;5052804;28;20385;-72
2023/05/22 07:45:56;;;;;;;0.30;0.30;;;;;;;;;;5070836;28;20075;-74
2023/05/22 07:48:25;;;;;;;0.38;0.30;;;;;;;;;;5069855;28;20028;-75
2023/05/22 07:50:50;;;;;;;0.30;0.30;;;;;;;;;;5053230;28;20059;-72
2023/05/22 07:53:16;;;;;;;8.15;2.75;;;;;;;;;;5070179;28;20134;-72
2023/05/22 07:55:43;;;;;;;1.60;1.55;;;;;;;;;;5053728;28;20511;-72
2023/05/22 07:58:09;;;;;;;0.20;0.20;;;;;;;;;;5069288;28;20130;-72
2023/05/22 08:00:38;;;;;;;0.20;0.20;;;;;;;;;;5058632;28;20033;-73
2023/05/22 08:03:04;;;;;;;0.20;0.20;;;;;;;;;;5051423;28;20052;-73
2023/05/22 08:05:29;;;;;;;0.20;0.20;;;;;;;;;;5051128;28;20033;-73
2023/05/22 08:07:54;;;;;;;0.30;0.30;;;;;;;;;;5033262;28;20480;-72
2023/05/22 08:10:20;;;;;;;0.20;0.20;;;;;;;;;;5032992;28;20457;-71
2023/05/22 08:12:46;;;;;;;0.20;0.20;;;;;;;;;;5033174;28;20043;-73
2023/05/22 08:15:11;;;;;;;0.20;0.20;;;;;;;;;;5051101;28;20041;-72
2023/05/22 08:17:36;;;;;;;0.20;0.20;;;;;;;;;;5050903;28;20029;-74
2023/05/22 08:20:02;;;;;;;1.70;1.45;;;;;;;;;;5050690;28;20401;-76
2023/05/22 08:22:30;;;;;;;1.73;1.02;;;;;;;;;;5069065;28;20078;-75
2023/05/22 08:24:55;;;;;;;0.35;0.35;;;;;;;;;;5071320;28;20049;-76
2023/05/22 08:27:20;;;;;;;1.30;1.13;;;;;;;;;;5070984;28;20612;-73
2023/05/22 08:29:46;;;;;;;2.13;1.23;;;;;;;;;;5070297;28;20032;-72
2023/05/22 08:32:11;;;;;;;0.20;0.20;;;;;;;;;;5070277;28;20060;-71
2023/05/22 08:34:39;;;;;;;0.20;0.20;;;;;;;;;;5052620;28;20041;-71
2023/05/22 08:37:04;;;;;;;0.20;0.20;;;;;;;;;;5070735;28;20086;-75
2023/05/22 08:39:30;;;;;;;0.20;0.20;;;;;;;;;;5070816;28;20426;-74
2023/05/22 08:41:55;;;;;;;0.40;0.40;;;;;;;;;;5070916;28;20494;-71
2023/05/22 08:44:21;;;;;;;1.00;0.63;;;;;;;;;;5070286;28;20036;-71
2023/05/22 08:46:48;;;;;;;0.65;0.65;;;;;;;;;;5068180;28;20107;-70
2023/05/22 08:49:14;;;;;;;0.20;0.20;;;;;;;;;;5070583;28;20422;-69
2023/05/22 08:51:43;;;;;;;0.20;0.20;;;;;;;;;;5054593;28;20496;-68
2023/05/22 08:54:09;;;;;;;0.52;0.50;;;;;;;;;;5058077;28;20081;-70
2023/05/22 08:56:35;;;;;;;1.85;1.45;;;;;;;;;;5078901;28;20037;-71
2023/05/22 08:59:01;;;;;;;1.23;0.93;;;;;;;;;;5070535;28;20039;-69
2023/05/22 09:01:30;;;;;;;1.30;0.73;;;;;;;;;;5070548;28;20506;-71
2023/05/22 09:04:01;;;;;;;0.20;0.20;;;;;;;;;;5035725;28;20470;-69
2023/05/22 09:06:30;;;;;;;0.47;0.47;;;;;;;;;;5068359;28;20171;-70
2023/05/22 09:08:56;;;;;;;0.30;0.30;;;;;;;;;;5071711;28;20025;-70
2023/05/22 09:11:22;;;;;;;1.45;0.82;;;;;;;;;;5068865;28;20031;-69
2023/05/22 09:13:48;;;;;;;0.95;0.50;;;;;;;;;;5067893;28;20036;-70
2023/05/22 09:16:14;;;;;;;1.48;0.95;;;;;;;;;;5055424;28;20040;-71
2023/05/22 09:18:41;;;;;;;0.20;0.20;;;;;;;;;;5049852;28;20029;-73
2023/05/22 09:21:07;;;;;;;2.25;1.63;;;;;;;;;;5062248;28;20110;-73
2023/05/22 09:23:32;;;;;;;1.73;1.30;;;;;;;;;;5069555;28;20078;-73
2023/05/22 09:25:58;;;;;;;2.83;1.55;;;;;;;;;;5063857;28;20043;-72
2023/05/22 09:28:24;;;;;;;2.08;1.05;;;;;;;;;;5050241;28;20035;-73
2023/05/22 09:30:50;;;;;;;2.17;1.45;;;;;;;;;;5057123;28;20278;-73
2023/05/22 09:33:16;;;;;;;2.35;1.52;;;;;;;;;;5049277;28;20474;-74
2023/05/22 09:35:42;;;;;;;5.80;1.98;;;;;;;;;;5049286;28;20033;-72
2023/05/22 09:38:11;;;;;;;0.75;0.57;;;;;;;;;;5049340;28;20033;-73
2023/05/22 09:40:37;;;;;;;0.20;0.20;;;;;;;;;;5053514;28;20479;-73
2023/05/22 09:43:06;;;;;;;1.35;1.10;;;;;;;;;;5069984;28;20032;-73
2023/05/22 09:45:33;;;;;;;1.98;1.42;;;;;;;;;;5070052;28;20071;-73
2023/05/22 09:47:59;;;;;;;1.63;1.23;;;;;;;;;;5069675;28;20032;-73
2023/05/22 09:50:24;;;;;;;1.95;1.20;;;;;;;;;;5069382;28;20043;-73
2023/05/22 09:52:50;;;;;;;0.20;0.20;;;;;;;;;;5069556;28;20123;-73
2023/05/22 09:55:17;;;;;;;1.67;0.90;;;;;;;;;;5051963;28;20032;-73
2023/05/22 09:57:43;;;;;;;1.10;0.85;;;;;;;;;;5069460;28;20028;-72
2023/05/22 10:00:16;;;;;;;1.23;0.82;;;;;;;;;;5068034;28;20756;-72
2023/05/22 10:02:45;;;;;;;1.48;0.77;;;;;;;;;;5052013;28;20063;-73
2023/05/22 10:05:11;;;;;;;6.75;1.75;;;;;;;;;;5051246;28;20033;-74
2023/05/22 10:07:48;;;;;;;0.50;0.50;;;;;;;;;;5069162;28;20115;-73
2023/05/22 10:10:15;;;;;;;0.55;0.55;;;;;;;;;;5068985;28;20403;-74
2023/05/22 10:12:42;;;;;;;5.22;1.90;;;;;;;;;;5069025;28;20028;-73
2023/05/22 10:15:09;;;;;;;0.60;0.50;;;;;;;;;;5069042;28;20582;-73
2023/05/22 10:17:35;;;;;;;1.27;1.17;;;;;;;;;;5051761;28;20525;-73
2023/05/22 10:20:02;;;;;;;4.13;1.90;;;;;;;;;;5068891;28;20391;-73
2023/05/22 10:22:29;;;;;;;0.43;0.40;;;;;;;;;;5051148;28;20056;-73
2023/05/22 10:24:56;;;;;;;0.43;0.40;;;;;;;;;;5069317;28;20043;-72
2023/05/22 10:27:21;;;;;;;2.33;1.25;;;;;;;;;;5050962;28;20037;-73
2023/05/22 10:29:51;;;;;;;0.20;0.20;;;;;;;;;;5069154;28;20513;-73
2023/05/22 10:32:17;;;;;;;3.40;1.13;;;;;;;;;;5070222;28;20032;-74
2023/05/22 10:34:59;;;;;;;3.22;2.92;;;;;;;;;;5075126;28;20036;-74
2023/05/22 10:37:30;;;;;;;1.02;0.70;;;;;;;;;;5068796;28;20032;-74
2023/05/22 10:40:01;;;;;;;2.03;1.42;;;;;;;;;;5068827;28;20380;-73
2023/05/22 10:42:32;;;;;;;4.35;1.73;;;;;;;;;;5068515;28;20029;-72
2023/05/22 10:45:01;;;;;;;1.55;0.63;;;;;;;;;;5069002;28;20032;-72
2023/05/22 10:47:28;;;;;;;2.97;1.52;;;;;;;;;;5050785;28;20492;-72
2023/05/22 10:50:05;;;;;;;0.70;0.68;;;;;;;;;;5068428;28;20040;-72
2023/05/22 10:52:30;;;;;;;2.70;1.35;;;;;;;;;;5068219;28;20028;-72
2023/05/22 10:54:58;;;;;;;1.50;0.85;;;;;;;;;;5050343;28;20039;-72
2023/05/22 10:57:23;;;;;;;2.20;1.05;;;;;;;;;;5068034;28;20088;-72
2023/05/22 10:59:49;;;;;;;0.52;0.52;;;;;;;;;;5064181;28;20428;-71
2023/05/22 11:02:29;;;;;;;2.75;1.17;;;;;;;;;;5069120;28;20020;-72
2023/05/22 11:05:15;;;;;;;1.75;1.02;;;;;;;;;;5048689;28;20045;-71
2023/05/22 11:07:40;;;;;;;1.33;1.10;;;;;;;;;;5048669;28;20040;-71
2023/05/22 11:10:06;;;;;;;2.20;1.30;;;;;;;;;;5047870;28;20396;-73
2023/05/22 11:12:31;;;;;;;0.25;0.25;;;;;;;;;;5060326;28;20039;-73
2023/05/22 11:15:04;;;;;;;0.80;0.50;;;;;;;;;;5033960;28;20387;-73
2023/05/22 11:17:31;;;;;;;3.60;1.45;;;;;;;;;;5066677;28;20037;-72
2023/05/22 11:20:00;;;;;;;0.63;0.60;;;;;;;;;;5055471;28;20035;-74
2023/05/22 11:22:42;;;;;;;1.35;1.02;;;;;;;;;;5068548;28;20033;-73
2023/05/22 11:25:09;;;;;;;1.15;0.98;;;;;;;;;;5068390;28;20048;-73
2023/05/22 11:27:35;;;;;;;0.85;0.73;;;;;;;;;;5068515;28;20111;-73
2023/05/22 11:30:01;;;;;;;1.63;0.93;;;;;;;;;;5066552;28;20028;-73
2023/05/22 11:32:27;;;;;;;1.60;1.40;;;;;;;;;;5065575;28;20029;-73
2023/05/22 11:34:52;;;;;;;0.28;0.28;;;;;;;;;;5049803;28;20829;-73
2023/05/22 11:37:18;;;;;;;17.25;1.48;;;;;;;;;;5065858;28;20112;-73
2023/05/22 11:39:51;;;;;;;3.20;1.48;;;;;;;;;;5050281;28;20486;-72
2023/05/22 11:42:19;;;;;;;1.48;1.13;;;;;;;;;;5068853;28;20349;-73
2023/05/22 11:44:45;;;;;;;5.40;2.17;;;;;;;;;;5068415;28;20033;-72
2023/05/22 11:47:10;;;;;;;4.32;1.67;;;;;;;;;;5070434;28;20028;-72
2023/05/22 11:49:36;;;;;;;2.15;1.40;;;;;;;;;;5076584;28;20384;-73
2023/05/22 11:52:01;;;;;;;1.00;0.95;;;;;;;;;;5067887;28;20139;-73
2023/05/22 11:54:30;;;;;;;1.42;1.05;;;;;;;;;;5067836;28;20040;-72
2023/05/22 11:56:56;;;;;;;5.18;2.30;;;;;;;;;;5067984;28;20034;-74
2023/05/22 11:59:21;;;;;;;1.85;0.95;;;;;;;;;;5063399;28;20028;-74
2023/05/22 12:01:48;;;;;;;0.60;0.52;;;;;;;;;;5056214;28;20038;-73
2023/05/22 12:04:14;;;;;;;6.85;0.68;;;;;;;;;;5077703;28;20059;-73
2023/05/22 12:06:40;;;;;;;3.25;1.98;;;;;;;;;;5071496;28;20123;-72
2023/05/22 12:09:06;;;;;;;5.93;1.70;;;;;;;;;;5064118;28;20099;-73
2023/05/22 12:11:33;;;;;;;5.57;1.58;;;;;;;;;;5072117;28;20426;-72
2023/05/22 12:13:59;;;;;;;1.55;1.17;;;;;;;;;;5069759;28;20040;-73
2023/05/22 12:16:25;;;;;;;14.00;2.55;;;;;;;;;;5069531;28;20040;-72
2023/05/22 12:18:52;;;;;;;1.30;0.82;;;;;;;;;;5069300;28;20036;-72
2023/05/22 12:21:17;;;;;;;0.40;0.35;;;;;;;;;;5074276;28;20035;-72
2023/05/22 12:23:47;;;;;;;2.63;1.52;;;;;;;;;;5069573;28;20123;-72
2023/05/22 12:26:13;;;;;;;17.40;1.73;;;;;;;;;;5076443;28;20024;-73
2023/05/22 12:28:38;;;;;;;1.98;1.23;;;;;;;;;;5075332;28;20028;-72
2023/05/22 12:31:03;;;;;;;3.28;1.50;;;;;;;;;;5080269;28;20077;-73
2023/05/22 12:33:29;;;;;;;1.85;1.40;;;;;;;;;;5069800;28;20063;-72
2023/05/22 12:35:58;;;;;;;3.30;2.25;;;;;;;;;;5073371;28;20043;-72
2023/05/22 12:38:25;;;;;;;3.30;1.30;;;;;;;;;;5051999;28;20036;-72
2023/05/22 12:40:51;;;;;;;6.05;2.08;;;;;;;;;;5070581;28;20097;-73
2023/05/22 12:43:16;;;;;;;1.40;0.88;;;;;;;;;;5069249;28;20408;-72
2023/05/22 12:45:42;;;;;;;3.15;1.63;;;;;;;;;;5053080;28;20043;-72
2023/05/22 12:48:07;;;;;;;0.35;0.35;;;;;;;;;;5070516;28;20036;-74
2023/05/22 12:50:33;;;;;;;1.17;1.17;;;;;;;;;;5071003;28;20031;-72
2023/05/22 12:53:02;;;;;;;1.95;1.30;;;;;;;;;;5071052;28;20028;-72
2023/05/22 12:55:27;;;;;;;2.55;1.77;;;;;;;;;;5070491;28;20040;-72
2023/05/22 12:57:53;;;;;;;0.90;0.73;;;;;;;;;;5052859;28;20771;-71
2023/05/22 13:00:18;;;;;;;1.55;1.00;;;;;;;;;;5070727;28;20032;-73
2023/05/22 13:02:44;;;;;;;4.18;1.50;;;;;;;;;;5070352;28;20040;-78
2023/05/22 13:05:09;;;;;;;29.80;3.15;;;;;;;;;;5036072;28;20064;-83
2023/05/22 13:07:35;;;;;;;2.15;1.20;;;;;;;;;;5070542;28;20419;-78
2023/05/22 13:10:02;;;;;;;0.30;0.30;;;;;;;;;;5070123;28;20468;-79
2023/05/22 13:12:29;;;;;;;3.25;1.73;;;;;;;;;;5051179;28;20496;-79
2023/05/22 13:14:55;;;;;;;2.05;1.52;;;;;;;;;;5070092;28;20407;-78
2023/05/22 13:17:20;;;;;;;3.90;1.90;;;;;;;;;;5052541;28;20039;-82
2023/05/22 13:19:45;;;;;;;0.63;0.50;;;;;;;;;;5052486;28;20036;-80
2023/05/22 13:22:11;;;;;;;1.92;1.30;;;;;;;;;;5052235;28;20028;-78
2023/05/22 13:24:36;;;;;;;0.30;0.30;;;;;;;;;;5052359;28;20036;-78
2023/05/22 13:27:02;;;;;;;0.22;0.22;;;;;;;;;;5070203;28;20063;-78
2023/05/22 13:29:27;;;;;;;0.30;0.30;;;;;;;;;;5070212;28;20098;-79
2023/05/22 13:31:53;;;;;;;3.60;0.82;;;;;;;;;;5040492;28;20119;-79
2023/05/22 13:34:18;;;;;;;2.13;1.42;;;;;;;;;;5070414;28;20037;-79
2023/05/22 13:36:43;;;;;;;0.20;0.20;;;;;;;;;;5060288;28;20085;-79
2023/05/22 13:39:09;;;;;;;0.10;0.10;;;;;;;;;;5056995;28;20032;-78
2023/05/22 13:41:34;;;;;;;2.50;1.08;;;;;;;;;;5069434;28;20113;-80
2023/05/22 13:44:00;;;;;;;0.28;0.28;;;;;;;;;;5044053;28;20083;-83
2023/05/22 13:46:25;;;;;;;1.27;0.95;;;;;;;;;;5035360;28;20036;-80
2023/05/22 13:48:50;;;;;;;0.10;0.10;;;;;;;;;;5068442;28;20502;-79
2023/05/22 13:51:16;;;;;;;0.30;0.30;;;;;;;;;;5071128;28;20017;-79
2023/05/22 13:53:41;;;;;;;1.10;0.90;;;;;;;;;;5069348;28;20036;-81
2023/05/22 13:56:07;;;;;;;0.75;0.50;;;;;;;;;;5059455;28;20166;-80
2023/05/22 13:58:33;;;;;;;0.77;0.75;;;;;;;;;;5049709;28;20037;-83
2023/05/22 14:00:58;;;;;;;0.68;0.65;;;;;;;;;;5067472;28;20120;-79
2023/05/22 14:03:24;;;;;;;2.53;1.15;;;;;;;;;;5049680;28;20123;-80
2023/05/22 14:05:50;;;;;;;1.30;0.95;;;;;;;;;;5067277;28;20028;-78
2023/05/22 14:08:15;;;;;;;1.65;1.05;;;;;;;;;;5050193;28;20467;-82
2023/05/22 14:10:40;;;;;;;3.08;1.13;;;;;;;;;;5069367;28;20025;-79
2023/05/22 14:13:07;;;;;;;0.57;0.25;;;;;;;;;;5068237;28;20518;-80
2023/05/22 14:15:32;;;;;;;1.90;1.58;;;;;;;;;;5069295;28;20032;-80
2023/05/22 14:17:58;;;;;;;1.25;0.88;;;;;;;;;;5069090;28;20490;-80
2023/05/22 14:20:23;;;;;;;1.25;0.98;;;;;;;;;;5068903;28;20594;-79
2023/05/22 14:22:49;;;;;;;2.95;1.60;;;;;;;;;;5069123;28;20047;-81
2023/05/22 14:25:15;;;;;;;1.85;1.40;;;;;;;;;;5069741;28;20040;-80
2023/05/22 14:27:40;;;;;;;2.13;1.33;;;;;;;;;;5068841;28;20037;-78
2023/05/22 14:30:12;;;;;;;2.45;1.85;;;;;;;;;;5025886;28;20041;-79
2023/05/22 14:32:37;;;;;;;2.08;1.75;;;;;;;;;;5068592;28;20135;-79
2023/05/22 14:35:03;;;;;;;2.00;1.35;;;;;;;;;;5072793;28;20118;-83
2023/05/22 14:37:28;;;;;;;8.07;1.80;;;;;;;;;;5048219;28;20028;-78
2023/05/22 14:39:54;;;;;;;2.13;1.05;;;;;;;;;;5034121;28;20383;-77
2023/05/22 14:42:19;;;;;;;3.55;2.35;;;;;;;;;;5049980;28;20417;-79